Time;durP1;ratioP1;P1;durP2;ratioP2;P2;SDS_P1;SDS_P2;PMS_P1;PMS_P2;Temp;Humidity;BMP_temperature;BMP_pressure;BME280_temperature;BME280_humidity;BME280_pressure;Samples;Min_cycle;Max_cycle;Signal;HPM_P1;HPM_P2
2022/07/31 00:01:50;;;;;;;2.45;1.58;;;19.50;56.40;;;;;;5011629;28;20036;-72
2022/07/31 00:04:16;;;;;;;4.13;1.70;;;19.50;56.10;;;;;;5011626;28;20082;-72
2022/07/31 00:06:43;;;;;;;7.15;2.08;;;19.30;56.60;;;;;;5011534;28;20100;-73
2022/07/31 00:09:09;;;;;;;5.65;1.60;;;19.30;57.30;;;;;;5011514;28;20024;-71
2022/07/31 00:11:34;;;;;;;3.58;1.60;;;19.20;57.50;;;;;;5011500;28;20018;-73
2022/07/31 00:14:00;;;;;;;4.05;1.90;;;19.30;57.50;;;;;;5011464;28;20075;-73
2022/07/31 00:16:25;;;;;;;4.68;1.58;;;19.30;57.50;;;;;;5011270;28;20070;-72
2022/07/31 00:18:51;;;;;;;2.92;1.80;;;19.30;57.30;;;;;;5011331;28;20497;-72
2022/07/31 00:21:17;;;;;;;3.63;2.10;;;19.20;57.50;;;;;;5011421;28;20034;-72
2022/07/31 00:23:43;;;;;;;2.88;2.00;;;19.00;57.40;;;;;;5011365;28;20551;-73
2022/07/31 00:26:08;;;;;;;5.85;2.05;;;19.10;58.00;;;;;;5011261;28;20030;-72
2022/07/31 00:28:35;;;;;;;5.45;1.90;;;19.10;58.00;;;;;;5011265;28;20022;-73
2022/07/31 00:31:01;;;;;;;2.90;2.05;;;19.10;58.00;;;;;;5011018;28;20026;-73
2022/07/31 00:33:27;;;;;;;3.78;2.10;;;19.20;57.90;;;;;;5011234;28;20036;-73
2022/07/31 00:35:52;;;;;;;4.97;2.20;;;19.20;57.60;;;;;;5011069;28;20108;-71
2022/07/31 00:38:18;;;;;;;3.92;1.95;;;19.20;57.70;;;;;;5011031;28;20097;-73
2022/07/31 00:40:47;;;;;;;5.70;1.92;;;19.20;58.30;;;;;;5011031;28;20097;-71
2022/07/31 00:43:14;;;;;;;3.17;1.58;;;19.20;57.50;;;;;;5011047;28;20058;-71
2022/07/31 00:45:40;;;;;;;6.22;2.15;;;19.20;57.70;;;;;;5010988;28;20025;-72
2022/07/31 00:48:06;;;;;;;6.75;2.10;;;19.20;57.50;;;;;;5010962;28;20030;-71
2022/07/31 00:50:31;;;;;;;4.97;2.00;;;19.00;57.50;;;;;;5010830;28;20368;-71
2022/07/31 00:52:57;;;;;;;3.90;1.85;;;18.80;58.10;;;;;;5010897;28;20033;-71
2022/07/31 00:55:22;;;;;;;6.32;2.00;;;18.70;58.60;;;;;;5009549;28;20068;-71
2022/07/31 00:57:48;;;;;;;3.20;1.98;;;18.70;58.70;;;;;;5010596;28;20061;-71
2022/07/31 01:00:14;;;;;;;2.05;1.63;;;18.60;59.10;;;;;;5010803;28;20404;-72
2022/07/31 01:02:39;;;;;;;3.35;1.92;;;18.60;59.40;;;;;;5010645;28;20038;-72
2022/07/31 01:05:05;;;;;;;2.65;1.75;;;18.60;59.20;;;;;;5012840;28;20109;-71
2022/07/31 01:07:31;;;;;;;2.65;1.80;;;18.60;59.20;;;;;;5009811;28;20034;-71
2022/07/31 01:09:57;;;;;;;5.93;1.80;;;18.70;59.10;;;;;;5015148;28;20473;-71
2022/07/31 01:12:34;;;;;;;3.15;1.67;;;18.90;58.70;;;;;;5010786;28;20382;-71
2022/07/31 01:15:04;;;;;;;2.97;2.08;;;18.90;58.20;;;;;;5010886;28;20450;-71
2022/07/31 01:17:30;;;;;;;2.38;1.88;;;19.00;57.90;;;;;;5010603;28;20033;-71
2022/07/31 01:19:57;;;;;;;4.70;1.67;;;18.90;57.70;;;;;;5010510;28;20117;-72
2022/07/31 01:22:54;;;;;;;2.10;1.50;;;18.80;58.40;;;;;;5010591;28;20102;-72
2022/07/31 01:25:46;;;;;;;3.35;1.60;;;18.80;58.40;;;;;;5010476;28;20064;-72
2022/07/31 01:28:26;;;;;;;2.53;1.50;;;18.70;58.70;;;;;;5010441;28;20025;-72
2022/07/31 01:30:59;;;;;;;6.90;1.90;;;18.60;59.00;;;;;;5010437;28;20022;-71
2022/07/31 01:33:29;;;;;;;6.32;1.88;;;18.60;59.20;;;;;;5010319;28;20475;-72
2022/07/31 01:36:01;;;;;;;2.65;1.60;;;18.60;59.30;;;;;;5010264;28;20049;-73
2022/07/31 01:38:39;;;;;;;2.20;1.40;;;18.50;59.00;;;;;;5010292;28;20478;-72
2022/07/31 01:41:08;;;;;;;3.92;1.60;;;18.10;60.00;;;;;;5010337;28;20029;-72
2022/07/31 01:43:40;;;;;;;2.08;1.60;;;17.90;61.60;;;;;;5009075;28;20112;-72
2022/07/31 01:46:10;;;;;;;6.35;2.03;;;17.70;62.20;;;;;;5010222;28;20028;-71
2022/07/31 01:48:37;;;;;;;4.63;2.30;;;17.80;61.90;;;;;;5010175;28;20041;-77
2022/07/31 01:51:05;;;;;;;4.32;1.92;;;17.80;62.20;;;;;;5010260;28;20030;-74
2022/07/31 01:53:31;;;;;;;2.83;1.70;;;17.90;61.70;;;;;;5010075;28;20377;-75
2022/07/31 01:55:58;;;;;;;3.08;1.40;;;18.00;61.50;;;;;;5010135;28;20037;-74
2022/07/31 01:58:26;;;;;;;4.13;1.60;;;18.00;61.50;;;;;;5010641;28;20045;-75
2022/07/31 02:00:54;;;;;;;5.82;1.60;;;18.10;61.30;;;;;;5014344;28;20030;-75
2022/07/31 02:03:21;;;;;;;1.95;1.58;;;18.10;61.20;;;;;;5010011;28;20026;-77
2022/07/31 02:05:47;;;;;;;2.97;1.30;;;18.20;61.40;;;;;;5010106;28;20046;-77
2022/07/31 02:08:16;;;;;;;3.08;1.60;;;18.20;60.90;;;;;;5009964;28;20030;-77
2022/07/31 02:10:43;;;;;;;5.95;1.70;;;18.30;60.70;;;;;;5010033;28;20033;-77
2022/07/31 02:13:11;;;;;;;2.72;1.48;;;18.30;59.50;;;;;;5010072;28;20371;-77
2022/07/31 02:15:37;;;;;;;3.00;1.58;;;18.40;60.00;;;;;;5009858;28;20044;-77
2022/07/31 02:18:04;;;;;;;2.35;1.50;;;18.30;59.80;;;;;;5011095;28;20056;-77
2022/07/31 02:20:31;;;;;;;4.68;1.50;;;18.30;60.10;;;;;;5013369;28;20048;-74
2022/07/31 02:22:57;;;;;;;4.93;1.40;;;18.20;60.20;;;;;;5013089;28;20030;-77
2022/07/31 02:25:24;;;;;;;2.25;1.25;;;18.10;60.90;;;;;;5013229;28;20122;-77
2022/07/31 02:27:51;;;;;;;2.67;1.60;;;18.10;61.10;;;;;;5013241;28;20056;-76
2022/07/31 02:30:17;;;;;;;1.55;1.35;;;18.10;61.20;;;;;;5013178;28;20076;-74
2022/07/31 02:32:47;;;;;;;4.95;1.52;;;18.10;61.30;;;;;;5013081;28;20068;-76
2022/07/31 02:35:16;;;;;;;2.25;1.35;;;18.20;61.00;;;;;;5012990;28;20026;-78
2022/07/31 02:37:44;;;;;;;2.67;1.60;;;18.20;60.90;;;;;;5013068;28;20036;-78
2022/07/31 02:40:12;;;;;;;3.28;1.50;;;18.20;60.70;;;;;;5012912;28;20033;-77
2022/07/31 02:42:40;;;;;;;2.15;1.50;;;18.20;60.60;;;;;;5012974;28;20041;-77
2022/07/31 02:45:08;;;;;;;2.72;1.27;;;18.30;61.60;;;;;;5012849;28;20467;-78
2022/07/31 02:47:35;;;;;;;1.92;1.25;;;18.30;60.60;;;;;;5012771;28;20030;-78
2022/07/31 02:50:02;;;;;;;7.45;1.33;;;18.40;60.50;;;;;;5012781;28;20497;-75
2022/07/31 02:52:28;;;;;;;2.13;1.50;;;18.40;60.60;;;;;;5012612;28;20030;-77
2022/07/31 02:54:56;;;;;;;1.98;1.20;;;18.30;60.80;;;;;;5012755;28;20028;-77
2022/07/31 02:57:21;;;;;;;2.40;1.17;;;18.30;60.80;;;;;;5012452;28;20094;-78
2022/07/31 02:59:47;;;;;;;1.98;1.40;;;18.30;61.00;;;;;;5012630;28;20030;-76
2022/07/31 03:02:12;;;;;;;1.25;1.15;;;18.20;60.90;;;;;;5012529;28;20471;-77
2022/07/31 03:04:38;;;;;;;2.45;1.67;;;18.20;60.80;;;;;;5012669;28;20053;-77
2022/07/31 03:07:03;;;;;;;3.35;1.20;;;18.20;60.90;;;;;;5012593;28;20101;-78
2022/07/31 03:09:29;;;;;;;3.13;1.25;;;18.20;61.20;;;;;;5012459;28;20017;-77
2022/07/31 03:11:58;;;;;;;1.17;1.08;;;18.20;60.90;;;;;;5012522;28;20534;-78
2022/07/31 03:14:24;;;;;;;5.18;1.40;;;18.20;60.90;;;;;;5012598;28;20420;-71
2022/07/31 03:16:51;;;;;;;3.15;1.55;;;18.20;61.00;;;;;;5012182;28;20042;-71
2022/07/31 03:19:19;;;;;;;5.07;1.55;;;18.10;61.60;;;;;;5012259;28;20109;-70
2022/07/31 03:21:46;;;;;;;3.17;1.52;;;18.00;61.90;;;;;;5012373;28;20049;-71
2022/07/31 03:24:12;;;;;;;1.98;1.10;;;17.90;62.00;;;;;;5012131;28;20022;-71
2022/07/31 03:26:38;;;;;;;3.10;1.27;;;17.90;62.30;;;;;;5012219;28;20053;-70
2022/07/31 03:29:03;;;;;;;2.85;1.38;;;17.90;62.00;;;;;;5012063;28;20470;-74
2022/07/31 03:31:29;;;;;;;1.92;1.30;;;17.90;62.10;;;;;;5012022;28;20033;-72
2022/07/31 03:33:55;;;;;;;5.93;1.50;;;17.80;62.40;;;;;;5012040;28;20073;-74
2022/07/31 03:36:21;;;;;;;2.65;1.13;;;17.90;62.60;;;;;;5011886;28;20053;-76
2022/07/31 03:38:47;;;;;;;1.75;1.42;;;17.80;62.70;;;;;;5011990;28;20037;-71
2022/07/31 03:41:13;;;;;;;3.53;2.05;;;17.80;62.80;;;;;;5012027;28;20101;-75
2022/07/31 03:43:41;;;;;;;1.77;1.50;;;17.80;62.80;;;;;;5012062;28;20376;-71
2022/07/31 03:46:08;;;;;;;3.60;1.55;;;17.80;62.90;;;;;;5011833;28;20436;-70
2022/07/31 03:48:33;;;;;;;3.17;1.98;;;17.70;62.90;;;;;;5011913;28;20086;-70
2022/07/31 03:50:59;;;;;;;2.60;1.80;;;17.70;63.30;;;;;;5012215;28;20022;-70
2022/07/31 03:53:25;;;;;;;2.17;1.60;;;17.60;63.40;;;;;;5013243;28;20054;-70
2022/07/31 03:55:53;;;;;;;4.32;1.50;;;17.60;63.80;;;;;;5011703;28;20115;-71
2022/07/31 03:58:20;;;;;;;2.95;1.30;;;17.60;63.70;;;;;;5011508;28;20046;-71
2022/07/31 04:00:46;;;;;;;3.08;1.60;;;17.50;63.40;;;;;;5011694;28;20192;-71
2022/07/31 04:03:13;;;;;;;3.70;1.40;;;17.60;63.50;;;;;;5010286;28;20116;-71
2022/07/31 04:05:39;;;;;;;4.32;1.60;;;17.60;63.10;;;;;;5011573;28;20022;-71
2022/07/31 04:08:06;;;;;;;2.45;1.55;;;17.70;62.80;;;;;;5011444;28;20034;-70
2022/07/31 04:10:32;;;;;;;2.40;1.65;;;17.70;62.70;;;;;;5011444;28;20066;-70
2022/07/31 04:12:57;;;;;;;5.28;1.40;;;17.80;62.50;;;;;;5011530;28;20030;-73
2022/07/31 04:15:23;;;;;;;2.17;1.40;;;17.70;62.90;;;;;;5011232;28;20052;-70
2022/07/31 04:17:48;;;;;;;4.45;1.60;;;17.70;62.90;;;;;;5011350;28;20497;-70
2022/07/31 04:20:14;;;;;;;4.43;1.92;;;17.60;63.10;;;;;;5011385;28;20412;-71
2022/07/31 04:22:40;;;;;;;5.13;1.77;;;17.60;63.30;;;;;;5009981;28;20033;-70
2022/07/31 04:25:06;;;;;;;3.20;1.33;;;17.50;63.40;;;;;;5010782;28;20049;-70
2022/07/31 04:27:34;;;;;;;3.78;1.40;;;17.60;63.50;;;;;;5011137;28;20026;-70
2022/07/31 04:30:01;;;;;;;2.45;1.58;;;17.60;63.40;;;;;;5011239;28;20398;-70
2022/07/31 04:32:26;;;;;;;3.63;1.73;;;17.60;63.10;;;;;;5011411;28;20025;-72
2022/07/31 04:34:52;;;;;;;3.72;1.65;;;17.80;62.80;;;;;;5011047;28;20064;-71
2022/07/31 04:37:18;;;;;;;1.83;1.65;;;17.80;62.40;;;;;;5010989;28;20040;-70
2022/07/31 04:39:43;;;;;;;4.35;1.83;;;17.90;62.30;;;;;;5011057;28;20101;-70
2022/07/31 04:42:09;;;;;;;4.88;1.60;;;17.90;62.10;;;;;;5010341;28;20493;-71
2022/07/31 04:44:34;;;;;;;2.55;1.55;;;18.00;61.80;;;;;;5010981;28;20123;-70
2022/07/31 04:47:02;;;;;;;1.48;1.38;;;18.00;61.70;;;;;;5009804;28;20026;-70
2022/07/31 04:49:29;;;;;;;2.58;1.60;;;18.00;61.70;;;;;;5010926;28;20022;-69
2022/07/31 04:51:56;;;;;;;4.00;1.63;;;18.10;61.30;;;;;;5010987;28;20049;-70
2022/07/31 04:54:22;;;;;;;4.70;1.60;;;18.10;61.10;;;;;;5010814;28;20024;-72
2022/07/31 04:56:47;;;;;;;1.65;1.10;;;18.10;61.50;;;;;;5010431;28;20054;-70
2022/07/31 04:59:15;;;;;;;2.95;1.42;;;18.20;61.20;;;;;;5010723;28;20474;-70
2022/07/31 05:01:42;;;;;;;2.70;1.65;;;18.20;60.80;;;;;;5010773;28;20034;-70
2022/07/31 05:04:09;;;;;;;2.63;1.30;;;18.20;60.80;;;;;;5010657;28;20118;-70
2022/07/31 05:06:40;;;;;;;4.57;1.75;;;18.20;61.00;;;;;;5010873;28;20032;-70
2022/07/31 05:09:07;;;;;;;2.78;1.45;;;18.20;60.70;;;;;;5010498;28;20026;-70
2022/07/31 05:11:34;;;;;;;2.75;1.20;;;18.10;61.10;;;;;;5012679;28;20065;-72
2022/07/31 05:14:02;;;;;;;1.52;1.40;;;18.00;61.50;;;;;;5012128;28;20532;-70
2022/07/31 05:16:28;;;;;;;3.92;1.70;;;17.90;62.10;;;;;;5010412;28;20124;-71
2022/07/31 05:18:54;;;;;;;3.53;1.45;;;17.80;62.20;;;;;;5010326;28;20022;-71
2022/07/31 05:21:20;;;;;;;2.10;1.23;;;17.80;62.20;;;;;;5009174;28;20057;-72
2022/07/31 05:23:48;;;;;;;3.35;1.33;;;17.90;62.00;;;;;;5010429;28;20478;-70
2022/07/31 05:26:15;;;;;;;4.60;1.60;;;17.90;62.20;;;;;;5010579;28;20060;-71
2022/07/31 05:28:41;;;;;;;1.50;1.20;;;18.00;61.60;;;;;;5010401;28;20018;-71
2022/07/31 05:31:07;;;;;;;2.22;1.70;;;18.10;61.60;;;;;;5010260;28;20022;-71
2022/07/31 05:33:33;;;;;;;1.73;1.25;;;18.10;61.20;;;;;;5010277;28;20351;-71
2022/07/31 05:36:00;;;;;;;2.03;1.33;;;18.10;61.10;;;;;;5010180;28;20060;-70
2022/07/31 05:38:26;;;;;;;2.05;1.40;;;18.20;61.10;;;;;;5010324;28;20026;-71
2022/07/31 05:40:52;;;;;;;4.50;1.65;;;18.20;61.10;;;;;;5010306;28;20497;-71
2022/07/31 05:43:18;;;;;;;2.72;1.50;;;18.30;61.00;;;;;;5010310;28;20090;-71
2022/07/31 05:45:45;;;;;;;2.15;1.33;;;18.40;60.80;;;;;;5010224;28;20521;-71
2022/07/31 05:48:12;;;;;;;1.45;1.35;;;18.50;60.30;;;;;;5010177;28;20145;-71
2022/07/31 05:50:37;;;;;;;1.65;1.38;;;18.60;60.00;;;;;;5008906;28;20030;-71
2022/07/31 05:53:03;;;;;;;5.28;1.13;;;18.80;59.60;;;;;;5011354;28;20032;-71
2022/07/31 05:55:28;;;;;;;2.60;1.20;;;18.90;59.20;;;;;;5013597;28;20113;-76
2022/07/31 05:57:54;;;;;;;1.48;1.25;;;19.10;59.00;;;;;;5013621;28;20058;-70
2022/07/31 06:00:22;;;;;;;2.13;1.42;;;19.20;58.30;;;;;;5013426;28;20038;-71
2022/07/31 06:02:48;;;;;;;3.10;1.48;;;19.40;57.90;;;;;;5013494;28;20032;-71
2022/07/31 06:05:13;;;;;;;3.30;1.75;;;19.70;56.80;;;;;;5013450;28;20105;-70
2022/07/31 06:07:40;;;;;;;3.67;1.73;;;19.90;56.40;;;;;;5013386;28;20030;-71
2022/07/31 06:10:06;;;;;;;1.52;1.40;;;20.10;55.80;;;;;;5013644;28;20026;-71
2022/07/31 06:12:31;;;;;;;4.45;1.30;;;20.10;55.40;;;;;;5013399;28;20032;-70
2022/07/31 06:14:58;;;;;;;3.08;1.48;;;20.10;55.60;;;;;;5013292;28;20059;-71
2022/07/31 06:17:24;;;;;;;1.30;1.20;;;20.10;55.90;;;;;;5013293;28;20120;-78
2022/07/31 06:19:49;;;;;;;4.75;1.17;;;20.10;56.20;;;;;;5012357;28;20026;-72
2022/07/31 06:22:15;;;;;;;1.48;1.08;;;20.10;56.30;;;;;;5013352;28;20030;-78
2022/07/31 06:24:40;;;;;;;3.13;1.85;;;20.10;56.30;;;;;;5013142;28;20494;-78
2022/07/31 06:27:06;;;;;;;2.45;1.30;;;20.20;55.90;;;;;;5013123;28;20025;-77
2022/07/31 06:29:31;;;;;;;3.30;1.23;;;20.20;55.80;;;;;;5014349;28;20045;-75
2022/07/31 06:31:57;;;;;;;1.50;1.20;;;20.20;56.20;;;;;;5018313;28;20034;-78
2022/07/31 06:34:23;;;;;;;2.03;1.40;;;20.20;56.20;;;;;;5013810;28;20033;-76
2022/07/31 06:36:49;;;;;;;1.90;1.10;;;20.30;56.10;;;;;;5012857;28;20065;-78
2022/07/31 06:39:15;;;;;;;1.42;1.25;;;20.30;55.70;;;;;;5012814;28;20111;-78
2022/07/31 06:41:45;;;;;;;2.75;1.17;;;20.30;55.80;;;;;;5012698;28;20025;-78
2022/07/31 06:44:12;;;;;;;4.47;1.90;;;20.30;57.00;;;;;;5012959;28;20022;-78
2022/07/31 06:46:38;;;;;;;2.85;1.60;;;20.40;56.10;;;;;;5012614;28;20062;-78
2022/07/31 06:49:04;;;;;;;2.17;1.50;;;20.50;56.00;;;;;;5011450;28;20080;-79
2022/07/31 06:51:29;;;;;;;1.48;1.20;;;20.50;55.20;;;;;;5012684;28;20033;-79
2022/07/31 06:53:55;;;;;;;4.13;1.70;;;20.70;55.20;;;;;;5012654;28;20432;-80
2022/07/31 06:56:21;;;;;;;4.63;1.60;;;20.80;55.40;;;;;;5012381;28;20036;-79
2022/07/31 06:58:47;;;;;;;3.33;1.77;;;20.90;56.10;;;;;;5011614;28;20053;-79
2022/07/31 07:01:12;;;;;;;1.67;1.35;;;21.10;54.80;;;;;;5013611;28;20030;-79
2022/07/31 07:03:38;;;;;;;5.32;1.33;;;21.30;54.10;;;;;;5012544;28;20052;-78
2022/07/31 07:06:04;;;;;;;1.35;1.25;;;21.50;53.50;;;;;;5012891;28;20366;-78
2022/07/31 07:08:29;;;;;;;2.65;1.35;;;21.70;52.40;;;;;;5011267;28;20037;-73
2022/07/31 07:10:55;;;;;;;3.15;1.38;;;22.00;52.30;;;;;;5012521;28;20026;-75
2022/07/31 07:13:21;;;;;;;2.78;1.42;;;22.20;49.10;;;;;;5012228;28;20026;-75
2022/07/31 07:15:46;;;;;;;5.80;1.30;;;22.40;48.40;;;;;;5011057;28;20063;-76
2022/07/31 07:18:13;;;;;;;2.42;1.15;;;22.60;47.20;;;;;;5011172;28;20022;-74
2022/07/31 07:20:38;;;;;;;2.85;1.55;;;22.80;47.00;;;;;;5010989;28;20029;-75
2022/07/31 07:23:04;;;;;;;4.50;1.02;;;23.00;46.70;;;;;;5012274;28;20029;-76
2022/07/31 07:25:30;;;;;;;2.35;1.20;;;23.20;45.30;;;;;;5012220;28;20379;-76
2022/07/31 07:27:55;;;;;;;2.20;1.23;;;23.30;44.80;;;;;;5012141;28;20040;-75
2022/07/31 07:30:22;;;;;;;1.50;1.02;;;23.40;45.00;;;;;;5012163;28;20018;-74
2022/07/31 07:32:47;;;;;;;2.65;1.02;;;23.50;44.90;;;;;;5012108;28;20038;-76
2022/07/31 07:35:13;;;;;;;2.30;1.02;;;23.60;44.80;;;;;;5011914;28;20071;-75
2022/07/31 07:37:39;;;;;;;1.30;0.93;;;23.80;44.50;;;;;;5011944;28;20098;-72
2022/07/31 07:40:07;;;;;;;2.35;1.45;;;24.00;43.80;;;;;;5011846;28;20026;-72
2022/07/31 07:42:33;;;;;;;1.83;1.40;;;24.10;42.60;;;;;;5012092;28;20026;-70
2022/07/31 07:44:58;;;;;;;7.07;2.25;;;24.30;41.90;;;;;;5010501;28;20018;-73
2022/07/31 07:47:24;;;;;;;3.95;1.30;;;24.30;40.90;;;;;;5011838;28;20038;-70
2022/07/31 07:49:50;;;;;;;4.03;1.17;;;24.20;38.50;;;;;;5011593;28;20097;-72
2022/07/31 07:52:15;;;;;;;4.10;1.42;;;24.20;38.90;;;;;;5011646;28;20026;-72
2022/07/31 07:54:42;;;;;;;4.93;1.17;;;24.10;39.30;;;;;;5011703;28;20494;-72
2022/07/31 07:57:08;;;;;;;4.22;1.00;;;24.20;39.30;;;;;;5011760;28;20089;-71
2022/07/31 07:59:34;;;;;;;3.67;1.25;;;24.30;38.90;;;;;;5011632;28;20105;-71
2022/07/31 08:02:00;;;;;;;3.72;1.33;;;24.40;38.90;;;;;;5011650;28;20437;-71
2022/07/31 08:04:25;;;;;;;3.28;1.60;;;24.50;39.00;;;;;;5011782;28;20018;-71
2022/07/31 08:06:51;;;;;;;2.92;1.17;;;24.50;38.50;;;;;;5011744;28;20026;-71
2022/07/31 08:09:17;;;;;;;4.13;1.42;;;24.50;37.90;;;;;;5011559;28;20025;-70
2022/07/31 08:11:42;;;;;;;1.98;1.10;;;24.50;38.40;;;;;;5011311;28;20470;-73
2022/07/31 08:14:08;;;;;;;2.72;1.20;;;24.70;38.30;;;;;;5011731;28;20033;-71
2022/07/31 08:16:34;;;;;;;4.85;1.40;;;24.60;37.50;;;;;;5010446;28;20045;-71
2022/07/31 08:18:59;;;;;;;1.90;1.30;;;24.40;37.50;;;;;;5011201;28;20022;-71
2022/07/31 08:21:25;;;;;;;4.88;1.38;;;24.50;37.90;;;;;;5011347;28;20058;-72
2022/07/31 08:23:51;;;;;;;4.00;1.13;;;24.50;38.40;;;;;;5011371;28;20022;-71
2022/07/31 08:26:17;;;;;;;4.03;1.20;;;24.70;37.50;;;;;;5011277;28;20022;-73
2022/07/31 08:28:42;;;;;;;1.83;1.10;;;24.90;37.10;;;;;;5009994;28;20032;-77
2022/07/31 08:31:08;;;;;;;3.25;1.15;;;25.00;36.60;;;;;;5011150;28;20417;-77
2022/07/31 08:33:34;;;;;;;5.10;1.42;;;25.10;36.60;;;;;;5009856;28;20018;-70
2022/07/31 08:36:00;;;;;;;2.17;1.20;;;25.00;35.30;;;;;;5011138;28;20510;-70
2022/07/31 08:38:26;;;;;;;9.40;1.52;;;25.00;35.70;;;;;;5011147;28;20047;-70
2022/07/31 08:40:52;;;;;;;2.75;1.20;;;25.00;35.90;;;;;;5011309;28;20109;-70
2022/07/31 08:43:17;;;;;;;1.95;1.23;;;25.00;34.30;;;;;;5010944;28;20110;-71
2022/07/31 08:45:46;;;;;;;4.38;1.25;;;24.90;35.40;;;;;;5010898;28;20033;-75
2022/07/31 08:48:14;;;;;;;2.47;1.10;;;25.00;35.10;;;;;;5009708;28;20033;-73
2022/07/31 08:50:43;;;;;;;3.67;1.20;;;25.10;34.80;;;;;;5009491;28;20135;-72
2022/07/31 08:53:13;;;;;;;1.92;1.10;;;25.20;35.20;;;;;;5009265;28;20033;-74
2022/07/31 08:55:41;;;;;;;3.60;1.30;;;25.40;35.30;;;;;;5009598;28;20470;-74
2022/07/31 08:58:07;;;;;;;4.60;1.13;;;25.40;34.80;;;;;;5009449;28;20061;-74
2022/07/31 09:00:32;;;;;;;4.07;1.20;;;25.40;34.90;;;;;;5009111;28;20128;-74
2022/07/31 09:02:58;;;;;;;1.58;0.82;;;25.30;35.30;;;;;;5009398;28;20462;-72
2022/07/31 09:05:24;;;;;;;4.22;1.13;;;25.20;35.20;;;;;;5009628;28;20113;-73
2022/07/31 09:07:50;;;;;;;2.53;1.10;;;25.20;35.30;;;;;;5009585;28;20465;-73
2022/07/31 09:10:25;;;;;;;3.28;1.35;;;25.20;35.00;;;;;;5009508;28;20018;-73
2022/07/31 09:12:52;;;;;;;2.88;1.60;;;25.30;35.20;;;;;;5009384;28;20022;-73
2022/07/31 09:15:23;;;;;;;1.95;1.13;;;25.30;35.00;;;;;;5009447;28;20488;-73
2022/07/31 09:17:49;;;;;;;2.55;0.95;;;25.40;35.20;;;;;;5009385;28;20057;-73
2022/07/31 09:20:32;;;;;;;2.42;1.10;;;25.60;34.70;;;;;;5009474;28;20022;-73
2022/07/31 09:23:10;;;;;;;1.95;1.05;;;25.70;33.00;;;;;;5009179;28;20026;-72
2022/07/31 09:25:36;;;;;;;3.97;1.30;;;25.60;33.30;;;;;;5009087;28;20029;-73
2022/07/31 09:28:06;;;;;;;2.83;1.10;;;25.50;33.10;;;;;;5009262;28;20026;-73
2022/07/31 09:30:32;;;;;;;2.72;1.20;;;25.60;33.10;;;;;;5009374;28;20367;-72
2022/07/31 09:33:17;;;;;;;4.28;1.20;;;25.60;33.10;;;;;;5010352;28;20034;-72
2022/07/31 09:35:52;;;;;;;;;;;25.80;34.10;;;;;;5010661;28;20069;-72
2022/07/31 09:38:19;;;;;;;3.13;1.23;;;26.00;34.50;;;;;;5009227;28;19928;-73
2022/07/31 09:40:45;;;;;;;4.35;1.25;;;26.10;33.40;;;;;;5009091;28;20030;-73
2022/07/31 09:43:15;;;;;;;4.35;1.30;;;25.90;33.20;;;;;;5009066;28;20022;-73
2022/07/31 09:45:44;;;;;;;2.28;1.02;;;25.70;34.10;;;;;;5008940;28;20048;-74
2022/07/31 09:48:12;;;;;;;1.75;0.95;;;25.70;34.20;;;;;;5008802;28;20022;-73
2022/07/31 09:50:52;;;;;;;4.22;1.33;;;25.90;33.70;;;;;;5008757;28;20466;-73
2022/07/31 09:53:18;;;;;;;3.30;1.30;;;26.10;34.20;;;;;;5008960;28;20030;-73
2022/07/31 09:55:55;;;;;;;2.78;1.30;;;26.20;33.40;;;;;;5008376;28;20042;-73
2022/07/31 09:58:22;;;;;;;4.20;1.40;;;26.10;33.30;;;;;;5008485;28;20074;-73
2022/07/31 10:00:50;;;;;;;2.72;1.20;;;26.10;33.60;;;;;;5008771;28;20113;-73
2022/07/31 10:03:20;;;;;;;3.70;1.23;;;25.90;33.90;;;;;;5008690;28;20477;-73
2022/07/31 10:05:46;;;;;;;2.63;1.55;;;25.90;33.90;;;;;;4992853;28;20130;-73
2022/07/31 10:08:13;;;;;;;2.60;1.20;;;26.00;34.20;;;;;;5008687;28;20475;-74
2022/07/31 10:10:42;;;;;;;2.70;1.20;;;26.00;34.40;;;;;;5008686;28;20138;-74
2022/07/31 10:13:14;;;;;;;2.17;1.00;;;26.10;34.00;;;;;;5008422;28;20478;-73
2022/07/31 10:15:41;;;;;;;2.05;1.27;;;26.10;33.80;;;;;;5008452;28;20048;-73
2022/07/31 10:18:10;;;;;;;3.42;1.08;;;26.20;33.60;;;;;;5008391;28;20038;-73
2022/07/31 10:20:38;;;;;;;3.47;1.48;;;26.30;34.10;;;;;;5008571;28;20033;-73
2022/07/31 10:23:16;;;;;;;3.75;1.33;;;26.30;32.60;;;;;;5008522;28;20470;-73
2022/07/31 10:25:47;;;;;;;3.78;1.30;;;26.30;32.80;;;;;;5008338;28;20482;-73
2022/07/31 10:28:13;;;;;;;1.98;1.20;;;26.20;32.90;;;;;;5008476;28;20026;-74
2022/07/31 10:30:38;;;;;;;2.45;1.02;;;26.10;32.70;;;;;;5008440;28;20390;-73
2022/07/31 10:33:07;;;;;;;2.67;1.30;;;26.20;32.60;;;;;;5008424;28;20030;-74
2022/07/31 10:35:50;;;;;;;1.98;1.00;;;26.10;33.30;;;;;;5008288;28;20079;-74
2022/07/31 10:38:27;;;;;;;3.20;1.23;;;26.20;33.00;;;;;;5008565;28;20497;-74
2022/07/31 10:41:14;;;;;;;1.02;0.70;;;26.20;32.20;;;;;;5011805;28;20121;-74
2022/07/31 10:43:59;;;;;;;5.20;1.50;;;26.40;32.40;;;;;;5011437;28;20026;-74
2022/07/31 10:46:32;;;;;;;1.10;1.00;;;26.60;32.70;;;;;;5011874;28;20079;-74
2022/07/31 10:48:59;;;;;;;2.65;1.00;;;26.80;31.60;;;;;;5011392;28;20026;-74
2022/07/31 10:51:25;;;;;;;2.22;1.20;;;27.00;31.70;;;;;;5011686;28;20090;-74
2022/07/31 10:54:00;;;;;;;3.17;1.30;;;27.10;31.90;;;;;;5011614;28;20032;-74
2022/07/31 10:56:27;;;;;;;2.30;1.17;;;27.30;31.80;;;;;;5011254;28;20045;-74
2022/07/31 10:58:54;;;;;;;3.13;1.25;;;27.50;30.30;;;;;;5011469;28;20034;-73
2022/07/31 11:01:21;;;;;;;2.00;1.40;;;27.60;30.90;;;;;;5011200;28;20030;-75
2022/07/31 11:03:52;;;;;;;1.85;1.15;;;27.60;29.60;;;;;;5011353;28;20116;-74
2022/07/31 11:06:20;;;;;;;1.42;1.00;;;27.70;30.20;;;;;;5011320;28;20029;-74
2022/07/31 11:08:48;;;;;;;2.38;1.33;;;27.80;28.50;;;;;;5011196;28;20034;-73
2022/07/31 11:11:14;;;;;;;2.35;1.20;;;27.90;29.20;;;;;;5010931;28;20386;-73
2022/07/31 11:13:54;;;;;;;2.42;1.00;;;27.60;29.30;;;;;;5010718;28;20033;-75
2022/07/31 11:16:21;;;;;;;5.78;1.05;;;27.50;29.00;;;;;;5012339;28;20558;-74
2022/07/31 11:19:07;;;;;;;3.78;1.13;;;27.30;29.70;;;;;;5037543;28;20491;-74
2022/07/31 11:21:34;;;;;;;3.63;1.20;;;27.10;30.00;;;;;;5029713;27;20030;-74
2022/07/31 11:24:00;;;;;;;5.57;1.10;;;27.10;30.40;;;;;;5010813;28;20022;-73
2022/07/31 11:26:25;;;;;;;2.60;0.95;;;27.20;30.70;;;;;;5010468;28;20029;-73
2022/07/31 11:28:51;;;;;;;1.88;0.85;;;27.20;30.80;;;;;;5010874;28;20490;-73
2022/07/31 11:31:17;;;;;;;2.00;1.10;;;27.20;30.70;;;;;;5010430;28;20026;-73
2022/07/31 11:33:45;;;;;;;4.10;1.50;;;27.30;30.20;;;;;;5010716;28;20378;-74
2022/07/31 11:36:16;;;;;;;2.10;1.15;;;27.40;29.80;;;;;;5010532;28;20056;-73
2022/07/31 11:38:44;;;;;;;2.17;1.38;;;27.40;29.40;;;;;;5010558;28;20112;-74
2022/07/31 11:41:11;;;;;;;2.88;1.23;;;27.40;29.80;;;;;;5010240;28;20492;-75
2022/07/31 11:43:42;;;;;;;1.80;1.00;;;27.50;29.30;;;;;;5010460;28;20415;-74
2022/07/31 11:46:08;;;;;;;2.17;1.10;;;27.40;29.00;;;;;;5010191;28;20030;-74
2022/07/31 11:48:37;;;;;;;2.67;1.48;;;27.50;29.50;;;;;;5010338;28;20386;-75
2022/07/31 11:51:03;;;;;;;2.60;1.02;;;27.80;29.30;;;;;;5008184;28;20309;-75
2022/07/31 11:53:38;;;;;;;3.60;1.23;;;28.10;29.30;;;;;;4993798;28;20452;-75
2022/07/31 11:56:04;;;;;;;2.00;1.58;;;28.20;28.70;;;;;;5010495;28;20037;-73
2022/07/31 11:58:29;;;;;;;9.07;1.55;;;27.70;28.80;;;;;;5010292;28;20418;-75
2022/07/31 12:00:57;;;;;;;2.75;0.98;;;27.40;30.10;;;;;;5014817;28;20029;-75
2022/07/31 12:03:27;;;;;;;1.98;1.30;;;27.50;30.30;;;;;;5010630;28;20030;-72
2022/07/31 12:05:53;;;;;;;2.60;1.30;;;27.90;29.60;;;;;;5011320;28;20037;-68
2022/07/31 12:08:20;;;;;;;3.53;1.25;;;28.20;29.10;;;;;;5011563;28;20018;-72
2022/07/31 12:10:46;;;;;;;5.00;1.27;;;28.50;29.20;;;;;;5011811;28;20389;-71
2022/07/31 12:13:19;;;;;;;1.30;1.10;;;28.80;27.80;;;;;;5011691;28;20026;-70
2022/07/31 12:16:04;;;;;;;2.78;1.20;;;28.50;28.00;;;;;;5011133;28;20018;-72
2022/07/31 12:18:49;;;;;;;2.47;1.40;;;28.50;28.70;;;;;;5022978;28;20035;-71
2022/07/31 12:21:15;;;;;;;2.95;1.30;;;29.10;27.90;;;;;;5130533;27;20027;-70
2022/07/31 12:23:47;;;;;;;2.67;1.17;;;29.40;27.60;;;;;;5114403;28;20034;-71
2022/07/31 12:26:25;;;;;;;2.45;1.20;;;29.20;26.60;;;;;;5114423;28;20110;-72
2022/07/31 12:29:06;;;;;;;2.35;1.10;;;29.10;26.50;;;;;;5114347;28;20055;-71
2022/07/31 12:31:44;;;;;;;2.65;1.20;;;28.80;26.10;;;;;;5114358;28;20035;-72
2022/07/31 12:34:10;;;;;;;1.10;0.95;;;28.60;26.70;;;;;;5130088;27;20465;-72
2022/07/31 12:36:35;;;;;;;6.32;1.25;;;28.50;27.60;;;;;;5114065;28;20062;-72
2022/07/31 12:39:03;;;;;;;4.38;1.40;;;28.50;27.90;;;;;;5114097;28;20024;-72
2022/07/31 12:41:29;;;;;;;1.33;0.85;;;28.50;28.60;;;;;;5113973;28;20031;-72
2022/07/31 12:44:07;;;;;;;3.42;0.90;;;28.60;28.60;;;;;;5129797;27;20460;-72
2022/07/31 12:46:35;;;;;;;2.60;1.13;;;28.40;27.80;;;;;;5113945;28;20027;-72
2022/07/31 12:49:01;;;;;;;3.33;1.00;;;28.70;26.90;;;;;;5114151;28;20074;-72
2022/07/31 12:51:27;;;;;;;2.45;0.93;;;29.20;26.30;;;;;;5114010;28;20027;-72